Terminal Aerodrome Forecast
Issued by NWS Milwaukee/Sullivan, WI

Home | Current Version | Previous Version | Text Only | Print | Product List | Glossary On
Versions: 1 2 3 4 5 6 7 8 9 10 11 12 13 14 15 16 17 18 19 20 21 22 23 24 25 26 27
000
FTUS43 KMKX 232328
TAFMSN
TAF
KMSN 232328Z 2400/2424 31007KT 6SM -RA OVC070
     FM240400 31011G22KT 6SM -RA OVC030
     FM240800 31016G29KT 5SM RA BR OVC010
     FM242100 31019G35KT P6SM OVC025
     FM242300 31017G30KT P6SM OVC060=

USA.gov is the U.S. government's official web portal to all federal, state and local government web resources and services.